createdAt,value
2018-08-16T00:00:05.235Z,61.28
2018-08-16T00:01:05.248Z,61.19
2018-08-16T00:02:05.259Z,61.28
2018-08-16T00:03:05.258Z,61.09
2018-08-16T00:04:05.284Z,61.28
2018-08-16T00:05:05.262Z,61.28
2018-08-16T00:06:05.337Z,61.47
2018-08-16T00:07:05.307Z,61.09
2018-08-16T00:08:05.337Z,61.19
2018-08-16T00:09:05.521Z,61.47
2018-08-16T00:10:05.351Z,61.57
2018-08-16T00:11:05.398Z,61.86
2018-08-16T00:12:05.430Z,61.86
2018-08-16T00:13:05.386Z,61.86
2018-08-16T00:14:05.392Z,61.96
2018-08-16T00:15:05.421Z,61.86
2018-08-16T00:16:05.404Z,61.67
2018-08-16T00:17:05.494Z,61.77
2018-08-16T00:18:05.508Z,61.77
2018-08-16T00:19:05.443Z,62.44
2018-08-16T00:20:05.475Z,62.25
2018-08-16T00:21:05.476Z,62.25
2018-08-16T00:22:05.489Z,62.15
2018-08-16T00:23:05.549Z,62.15
2018-08-16T00:24:05.494Z,62.44
2018-08-16T00:25:05.557Z,62.34
2018-08-16T00:26:05.554Z,62.25
2018-08-16T00:27:05.550Z,62.63
2018-08-16T00:28:05.591Z,62.63
2018-08-16T00:29:05.575Z,62.63
2018-08-16T00:30:05.713Z,62.92
2018-08-16T00:31:05.627Z,62.54
2018-08-16T00:32:05.607Z,62.73
2018-08-16T00:33:05.638Z,62.63
2018-08-16T00:34:05.628Z,62.54
2018-08-16T00:35:05.654Z,62.82
2018-08-16T00:36:05.696Z,63.02
2018-08-16T00:37:05.731Z,63.02
2018-08-16T00:38:05.669Z,63.02
2018-08-16T00:39:05.693Z,62.73
2018-08-16T00:40:05.714Z,63.60
2018-08-16T00:41:05.709Z,62.92
2018-08-16T00:42:05.760Z,63.40
2018-08-16T00:43:05.753Z,62.92
2018-08-16T00:44:05.800Z,63.60
2018-08-16T00:45:05.790Z,62.92
2018-08-16T00:46:05.782Z,62.73
2018-08-16T00:47:05.812Z,63.02
2018-08-16T00:48:05.847Z,63.31
2018-08-16T00:49:05.806Z,63.40
2018-08-16T00:50:05.817Z,63.21
2018-08-16T00:51:05.836Z,63.31
2018-08-16T00:52:05.833Z,63.31
2018-08-16T00:53:05.899Z,63.31
2018-08-16T00:54:05.937Z,63.79
2018-08-16T00:55:05.880Z,63.67
2018-08-16T00:56:05.909Z,63.85
2018-08-16T00:57:05.935Z,63.60
2018-08-16T00:58:05.929Z,63.67
2018-08-16T00:59:05.982Z,62.79
2018-08-16T01:00:06.009Z,63.76
2018-08-16T01:01:05.943Z,63.60
2018-08-16T01:02:05.968Z,63.57
2018-08-16T01:03:05.969Z,63.76
2018-08-16T01:04:05.994Z,64.05
2018-08-16T01:05:06.041Z,63.47
2018-08-16T01:06:06.038Z,64.15
2018-08-16T01:07:06.044Z,63.79
2018-08-16T01:08:06.047Z,63.47
2018-08-16T01:09:06.058Z,64.05
2018-08-16T01:10:06.107Z,63.76
2018-08-16T01:11:06.084Z,63.76
2018-08-16T01:12:06.094Z,63.89
2018-08-16T01:13:06.133Z,63.37
2018-08-16T01:14:06.108Z,63.37
2018-08-16T01:15:06.166Z,63.57
2018-08-16T01:16:06.149Z,63.85
2018-08-16T01:17:06.150Z,63.57
2018-08-16T01:18:06.172Z,63.57
2018-08-16T01:19:06.171Z,64.15
2018-08-16T01:20:06.244Z,63.95
2018-08-16T01:21:06.248Z,64.15
2018-08-16T01:22:06.201Z,64.05
2018-08-16T01:23:06.214Z,64.15
2018-08-16T01:24:06.209Z,63.37
2018-08-16T01:25:06.344Z,63.95
2018-08-16T01:26:06.271Z,63.85
2018-08-16T01:27:06.290Z,64.05
2018-08-16T01:28:06.278Z,64.43
2018-08-16T01:29:06.281Z,64.24
2018-08-16T01:30:06.287Z,64.24
2018-08-16T01:31:06.342Z,64.24
2018-08-16T01:32:06.344Z,64.24
2018-08-16T01:33:06.334Z,64.53
2018-08-16T01:34:06.335Z,64.92
2018-08-16T01:35:06.391Z,64.43
2018-08-16T01:36:06.370Z,64.53
2018-08-16T01:37:06.396Z,64.43
2018-08-16T01:38:06.420Z,64.92
2018-08-16T01:39:06.415Z,64.72
2018-08-16T01:40:06.403Z,64.63
2018-08-16T01:41:06.445Z,64.63
2018-08-16T01:42:06.429Z,64.72
2018-08-16T01:43:06.500Z,64.72
2018-08-16T01:44:06.470Z,64.82
2018-08-16T01:45:06.487Z,65.01
2018-08-16T01:46:06.492Z,64.43
2018-08-16T01:47:06.541Z,64.53
2018-08-16T01:48:06.584Z,64.63
2018-08-16T01:49:06.529Z,64.53
2018-08-16T01:50:06.533Z,64.43
2018-08-16T01:51:06.577Z,64.53
2018-08-16T01:52:06.588Z,64.92
2018-08-16T01:53:06.594Z,64.34
2018-08-16T01:54:06.592Z,64.63
2018-08-16T01:55:06.606Z,64.15
2018-08-16T01:56:06.637Z,64.53
2018-08-16T01:57:06.649Z,64.63
2018-08-16T01:58:06.646Z,64.82
2018-08-16T01:59:06.648Z,64.24
2018-08-16T02:00:06.673Z,64.34
2018-08-16T02:01:06.726Z,64.21
2018-08-16T02:02:06.673Z,63.92
2018-08-16T02:03:06.681Z,63.92
2018-08-16T02:04:06.697Z,63.82
2018-08-16T02:05:06.720Z,64.02
2018-08-16T02:06:06.730Z,63.82
2018-08-16T02:07:06.749Z,63.54
2018-08-16T02:08:06.746Z,63.73
2018-08-16T02:09:06.748Z,64.40
2018-08-16T02:10:06.776Z,63.73
2018-08-16T02:11:06.827Z,63.95
2018-08-16T02:12:06.800Z,63.44
2018-08-16T02:13:06.826Z,64.40
2018-08-16T02:14:06.820Z,63.44
2018-08-16T02:15:06.827Z,63.92
2018-08-16T02:16:06.848Z,63.92
2018-08-16T02:17:06.842Z,64.40
2018-08-16T02:18:06.932Z,64.21
2018-08-16T02:19:06.881Z,64.11
2018-08-16T02:20:06.922Z,64.02
2018-08-16T02:21:06.912Z,64.11
2018-08-16T02:22:06.905Z,64.11
2018-08-16T02:23:06.988Z,63.92
2018-08-16T02:24:06.984Z,63.73
2018-08-16T02:25:06.961Z,64.11
2018-08-16T02:26:06.941Z,64.21
2018-08-16T02:27:07.004Z,64.02
2018-08-16T02:28:06.970Z,64.24
2018-08-16T02:29:07.012Z,64.21
2018-08-16T02:30:07.005Z,64.31
2018-08-16T02:31:07.082Z,63.82
2018-08-16T02:32:07.031Z,64.21
2018-08-16T02:33:07.052Z,64.02
2018-08-16T02:34:07.091Z,64.11
2018-08-16T02:35:07.069Z,63.82
2018-08-16T02:36:07.153Z,64.69
2018-08-16T02:37:07.098Z,64.59
2018-08-16T02:38:07.149Z,64.50
2018-08-16T02:39:07.107Z,64.69
2018-08-16T02:40:07.147Z,64.69
2018-08-16T02:41:07.158Z,64.59
2018-08-16T02:42:07.150Z,64.98
2018-08-16T02:43:07.205Z,64.98
2018-08-16T02:44:07.169Z,64.59
2018-08-16T02:45:07.174Z,64.40
2018-08-16T02:46:07.196Z,64.69
2018-08-16T02:47:07.185Z,64.31
2018-08-16T02:48:07.270Z,64.50
2018-08-16T02:49:07.219Z,64.89
2018-08-16T02:50:07.243Z,64.40
2018-08-16T02:51:07.255Z,64.59
2018-08-16T02:52:07.266Z,64.40
2018-08-16T02:53:07.305Z,64.40
2018-08-16T02:54:07.296Z,65.56
2018-08-16T02:55:07.344Z,65.27
2018-08-16T02:56:07.329Z,65.37
2018-08-16T02:57:07.337Z,65.37
2018-08-16T02:58:07.346Z,65.17
2018-08-16T02:59:07.347Z,65.47
2018-08-16T03:00:07.406Z,65.27
2018-08-16T03:01:07.359Z,65.17
2018-08-16T03:02:07.363Z,65.17
2018-08-16T03:03:07.398Z,64.89
2018-08-16T03:04:07.396Z,65.37
2018-08-16T03:05:07.449Z,65.08
2018-08-16T03:06:07.480Z,65.37
2018-08-16T03:07:07.480Z,65.66
2018-08-16T03:08:07.452Z,65.66
2018-08-16T03:09:07.449Z,65.27
2018-08-16T03:10:07.478Z,65.37
2018-08-16T03:11:07.507Z,65.27
2018-08-16T03:12:07.524Z,65.66
2018-08-16T03:13:15.696Z,65.27
2018-08-16T03:14:07.516Z,65.37
2018-08-16T03:15:07.515Z,65.27
2018-08-16T03:16:07.565Z,65.27
2018-08-16T03:17:07.541Z,64.98
2018-08-16T03:18:07.584Z,65.08
2018-08-16T03:19:07.569Z,65.08
2018-08-16T03:20:07.601Z,65.56
2018-08-16T03:21:07.657Z,64.95
2018-08-16T03:22:07.627Z,65.63
2018-08-16T03:23:07.681Z,65.27
2018-08-16T03:24:07.647Z,65.66
2018-08-16T03:25:07.644Z,65.08
2018-08-16T03:26:07.659Z,65.47
2018-08-16T03:27:07.701Z,65.17
2018-08-16T03:28:07.678Z,65.33
2018-08-16T03:29:07.711Z,65.37
2018-08-16T03:30:07.708Z,65.27
2018-08-16T03:31:07.718Z,65.37
2018-08-16T03:32:07.748Z,65.81
2018-08-16T03:33:07.790Z,65.81
2018-08-16T03:34:07.732Z,65.72
2018-08-16T03:35:07.761Z,65.95
2018-08-16T03:36:07.774Z,65.63
2018-08-16T03:37:07.779Z,65.63
2018-08-16T03:38:07.818Z,66.30
2018-08-16T03:39:07.800Z,66.49
2018-08-16T03:40:07.835Z,66.01
2018-08-16T03:41:07.849Z,66.20
2018-08-16T03:42:07.867Z,66.11
2018-08-16T03:43:07.909Z,66.11
2018-08-16T03:44:07.928Z,66.01
2018-08-16T03:45:07.889Z,66.33
2018-08-16T03:46:07.895Z,66.01
2018-08-16T03:47:07.911Z,66.30
2018-08-16T03:48:07.938Z,66.11
2018-08-16T03:49:07.963Z,66.59
2018-08-16T03:50:07.919Z,66.88
2018-08-16T03:51:07.971Z,66.97
2018-08-16T03:52:07.981Z,66.39
2018-08-16T03:53:07.991Z,67.07
2018-08-16T03:54:08.043Z,66.39
2018-08-16T03:55:08.022Z,67.07
2018-08-16T03:56:08.012Z,66.39
2018-08-16T03:57:08.023Z,66.78
2018-08-16T03:58:08.020Z,67.07
2018-08-16T03:59:08.074Z,67.07
2018-08-16T04:00:08.069Z,66.69
2018-08-16T04:01:08.060Z,66.78
2018-08-16T04:02:08.095Z,66.78
2018-08-16T04:03:08.112Z,67.07
2018-08-16T04:04:08.118Z,67.07
2018-08-16T04:05:08.113Z,67.26
2018-08-16T04:06:08.116Z,66.88
2018-08-16T04:07:08.121Z,67.26
2018-08-16T04:08:08.206Z,67.36
2018-08-16T04:09:08.153Z,66.97
2018-08-16T04:10:08.203Z,66.97
2018-08-16T04:11:08.170Z,67.26
2018-08-16T04:12:08.193Z,67.26
2018-08-16T04:13:08.227Z,67.26
2018-08-16T04:14:08.246Z,67.26
2018-08-16T04:15:08.248Z,67.84
2018-08-16T04:16:08.259Z,67.07
2018-08-16T04:17:08.245Z,67.07
2018-08-16T04:18:08.257Z,67.10
2018-08-16T04:19:08.260Z,67.16
2018-08-16T04:20:08.338Z,67.07
2018-08-16T04:21:08.353Z,67.07
2018-08-16T04:22:08.303Z,66.97
2018-08-16T04:23:08.353Z,67.55
2018-08-16T04:24:08.369Z,67.20
2018-08-16T04:25:08.348Z,67.40
2018-08-16T04:26:08.388Z,67.16
2018-08-16T04:27:08.394Z,67.68
2018-08-16T04:28:08.383Z,67.40
2018-08-16T04:29:08.411Z,67.20
2018-08-16T04:30:08.416Z,67.30
2018-08-16T04:31:08.402Z,67.49
2018-08-16T04:32:08.437Z,67.58
2018-08-16T04:33:08.441Z,67.68
2018-08-16T04:34:08.443Z,68.07
2018-08-16T04:35:08.554Z,67.97
2018-08-16T04:36:08.584Z,67.40
2018-08-16T04:37:08.491Z,68.26
2018-08-16T04:38:08.562Z,67.58
2018-08-16T04:39:08.510Z,67.00
2018-08-16T04:40:08.516Z,67.30
2018-08-16T04:41:08.534Z,67.40
2018-08-16T04:42:08.677Z,67.04
2018-08-16T04:43:08.603Z,67.00
2018-08-16T04:44:08.639Z,67.43
2018-08-16T04:45:08.630Z,67.00
2018-08-16T04:46:08.637Z,67.30
2018-08-16T04:47:08.597Z,66.85
2018-08-16T04:48:08.660Z,66.75
2018-08-16T04:49:08.627Z,66.94
2018-08-16T04:50:08.652Z,66.46
2018-08-16T04:51:08.673Z,66.08
2018-08-16T04:52:08.680Z,65.20
2018-08-16T04:53:08.683Z,65.20
2018-08-16T04:54:08.681Z,65.20
2018-08-16T04:55:08.670Z,64.63
2018-08-16T04:56:08.784Z,64.53
2018-08-16T04:57:08.717Z,65.40
2018-08-16T04:58:08.777Z,64.76
2018-08-16T04:59:08.727Z,64.66
2018-08-16T05:00:08.766Z,64.37
2018-08-16T05:01:08.753Z,64.66
2018-08-16T05:02:08.781Z,64.28
2018-08-16T05:03:08.833Z,64.56
2018-08-16T05:04:08.800Z,63.98
2018-08-16T05:05:08.821Z,63.89
2018-08-16T05:06:08.834Z,63.89
2018-08-16T05:07:08.852Z,64.28
2018-08-16T05:08:08.893Z,64.37
2018-08-16T05:09:08.866Z,63.40
2018-08-16T05:10:08.920Z,63.40
2018-08-16T05:11:08.943Z,62.54
2018-08-16T05:12:08.919Z,63.02
2018-08-16T05:13:08.927Z,63.15
2018-08-16T05:14:08.943Z,63.24
2018-08-16T05:15:08.996Z,62.95
2018-08-16T05:16:08.986Z,63.43
2018-08-16T05:17:08.984Z,63.34
2018-08-16T05:18:08.958Z,63.63
2018-08-16T05:19:09.080Z,63.53
2018-08-16T05:20:09.024Z,63.34
2018-08-16T05:21:09.013Z,63.63
2018-08-16T05:22:09.034Z,62.57
2018-08-16T05:23:09.114Z,62.86
2018-08-16T05:24:09.065Z,62.79
2018-08-16T05:25:09.130Z,61.83
2018-08-16T05:26:09.070Z,63.05
2018-08-16T05:27:09.109Z,62.60
2018-08-16T05:28:09.114Z,62.60
2018-08-16T05:29:09.115Z,62.98
2018-08-16T05:30:09.108Z,62.21
2018-08-16T05:31:09.185Z,62.89
2018-08-16T05:32:09.154Z,62.40
2018-08-16T05:33:09.187Z,62.02
2018-08-16T05:34:09.182Z,61.25
2018-08-16T05:35:09.207Z,62.02
2018-08-16T05:36:09.201Z,61.44
2018-08-16T05:37:09.200Z,61.34
2018-08-16T05:38:09.230Z,62.12
2018-08-16T05:39:09.300Z,61.37
2018-08-16T05:40:09.264Z,61.08
2018-08-16T05:41:09.278Z,61.47
2018-08-16T05:42:09.280Z,60.21
2018-08-16T05:43:09.382Z,60.60
2018-08-16T05:44:09.293Z,60.50
2018-08-16T05:45:09.402Z,60.31
2018-08-16T05:46:09.341Z,60.14
2018-08-16T05:47:09.334Z,60.53
2018-08-16T05:48:09.382Z,59.95
2018-08-16T05:49:09.382Z,60.14
2018-08-16T05:50:09.422Z,59.66
2018-08-16T05:51:09.427Z,59.18
2018-08-16T05:52:09.420Z,59.11
2018-08-16T05:53:09.485Z,59.08
2018-08-16T05:54:09.488Z,59.08
2018-08-16T05:55:09.465Z,60.44
2018-08-16T05:56:09.491Z,59.08
2018-08-16T05:57:09.495Z,59.01
2018-08-16T05:58:09.544Z,58.92
2018-08-16T05:59:09.504Z,58.63
2018-08-16T06:00:09.569Z,59.31
2018-08-16T06:01:09.539Z,58.24
2018-08-16T06:02:09.550Z,59.11
2018-08-16T06:03:09.653Z,59.01
2018-08-16T06:04:09.688Z,58.04
2018-08-16T06:05:09.594Z,58.07
2018-08-16T06:06:09.612Z,58.92
2018-08-16T06:07:09.598Z,58.27
2018-08-16T06:08:09.633Z,58.37
2018-08-16T06:09:09.669Z,58.56
2018-08-16T06:10:09.679Z,58.17
2018-08-16T06:11:09.682Z,57.50
2018-08-16T06:12:09.749Z,57.98
2018-08-16T06:13:09.720Z,57.40
2018-08-16T06:14:09.776Z,57.59
2018-08-16T06:15:09.813Z,57.11
2018-08-16T06:16:09.743Z,57.20
2018-08-16T06:17:09.743Z,56.92
2018-08-16T06:18:09.757Z,57.53
2018-08-16T06:19:09.793Z,57.23
2018-08-16T06:20:09.825Z,56.72
2018-08-16T06:21:09.796Z,57.14
2018-08-16T06:22:09.857Z,57.14
2018-08-16T06:23:09.867Z,57.23
2018-08-16T06:24:09.955Z,56.75
2018-08-16T06:25:09.877Z,56.46
2018-08-16T06:26:09.997Z,57.14
2018-08-16T06:27:09.899Z,56.16
2018-08-16T06:28:09.922Z,56.26
2018-08-16T06:29:09.942Z,56.46
2018-08-16T06:30:09.971Z,56.26
2018-08-16T06:31:10.020Z,56.16
2018-08-16T06:32:10.059Z,56.26
2018-08-16T06:33:09.967Z,56.65
2018-08-16T06:34:10.015Z,56.16
2018-08-16T06:35:09.997Z,56.10
2018-08-16T06:36:10.013Z,55.78
2018-08-16T06:37:10.093Z,56.68
2018-08-16T06:38:10.033Z,56.68
2018-08-16T06:39:10.067Z,56.39
2018-08-16T06:40:10.083Z,57.45
2018-08-16T06:41:10.111Z,56.97
2018-08-16T06:42:10.163Z,56.87
2018-08-16T06:43:10.165Z,56.49
2018-08-16T06:44:10.149Z,56.00
2018-08-16T06:45:10.134Z,56.00
2018-08-16T06:46:10.272Z,55.71
2018-08-16T06:47:10.186Z,56.29
2018-08-16T06:48:10.195Z,56.29
2018-08-16T06:49:10.266Z,56.49
2018-08-16T06:50:10.229Z,56.49
2018-08-16T06:51:10.265Z,56.00
2018-08-16T06:52:10.269Z,56.20
2018-08-16T06:53:10.274Z,56.20
2018-08-16T06:54:10.304Z,56.10
2018-08-16T06:55:10.291Z,57.26
2018-08-16T06:56:10.317Z,56.77
2018-08-16T06:57:10.338Z,55.71
2018-08-16T06:58:10.408Z,56.59
2018-08-16T06:59:10.386Z,56.97
2018-08-16T07:00:10.431Z,57.94
2018-08-16T07:01:10.398Z,57.55
2018-08-16T07:02:10.407Z,56.59
2018-08-16T07:03:10.406Z,56.77
2018-08-16T07:04:10.487Z,56.39
2018-08-16T07:05:10.506Z,57.07
2018-08-16T07:06:10.496Z,58.62
2018-08-16T07:07:10.468Z,58.33
2018-08-16T07:08:10.505Z,57.17
2018-08-16T07:09:10.973Z,57.84
2018-08-16T07:10:10.521Z,57.17
2018-08-16T07:11:10.529Z,56.29
2018-08-16T07:12:10.687Z,55.81
2018-08-16T07:13:10.550Z,56.49
2018-08-16T07:14:10.590Z,56.87
2018-08-16T07:15:10.663Z,57.36
2018-08-16T07:16:10.649Z,57.36
2018-08-16T07:17:10.614Z,56.87
2018-08-16T07:18:10.626Z,59.00
2018-08-16T07:19:10.687Z,56.65
2018-08-16T07:20:10.691Z,57.26
2018-08-16T07:21:10.689Z,57.84
2018-08-16T07:22:10.738Z,58.33
2018-08-16T07:23:10.706Z,56.77
2018-08-16T07:24:10.722Z,56.85
2018-08-16T07:25:10.766Z,57.33
2018-08-16T07:26:10.766Z,57.14
2018-08-16T07:27:10.809Z,56.36
2018-08-16T07:28:10.785Z,56.36
2018-08-16T07:29:10.847Z,56.94
2018-08-16T07:30:10.864Z,57.04
2018-08-16T07:31:10.838Z,57.04
2018-08-16T07:32:10.852Z,58.39
2018-08-16T07:33:10.842Z,58.30
2018-08-16T07:34:10.884Z,58.98
2018-08-16T07:35:10.906Z,57.43
2018-08-16T07:36:10.897Z,56.65
2018-08-16T07:37:10.938Z,57.04
2018-08-16T07:38:10.937Z,56.36
2018-08-16T07:39:10.914Z,56.56
2018-08-16T07:40:10.962Z,57.33
2018-08-16T07:41:10.969Z,57.14
2018-08-16T07:42:10.995Z,57.53
2018-08-16T07:43:11.000Z,56.94
2018-08-16T07:44:11.076Z,56.75
2018-08-16T07:45:11.063Z,55.88
2018-08-16T07:46:11.101Z,55.98
2018-08-16T07:47:11.121Z,56.46
2018-08-16T07:48:11.055Z,57.62
2018-08-16T07:49:11.089Z,56.94
2018-08-16T07:50:11.098Z,55.88
2018-08-16T07:51:11.193Z,56.62
2018-08-16T07:52:11.202Z,56.26
2018-08-16T07:53:11.127Z,57.81
2018-08-16T07:54:11.126Z,56.75
2018-08-16T07:55:11.146Z,56.36
2018-08-16T07:56:11.165Z,56.82
2018-08-16T07:57:11.209Z,56.52
2018-08-16T07:58:11.193Z,57.11
2018-08-16T07:59:11.253Z,57.01
2018-08-16T08:00:11.226Z,56.56
2018-08-16T08:01:11.245Z,58.39
2018-08-16T08:02:11.256Z,57.53
2018-08-16T08:03:11.257Z,58.88
2018-08-16T08:04:11.329Z,58.88
2018-08-16T08:05:11.341Z,58.49
2018-08-16T08:06:11.299Z,56.65
2018-08-16T08:07:11.357Z,57.33
2018-08-16T08:08:11.325Z,57.62
2018-08-16T08:09:11.476Z,57.62
2018-08-16T08:10:11.412Z,57.33
2018-08-16T08:11:11.360Z,56.65
2018-08-16T08:12:11.397Z,57.14
2018-08-16T08:13:11.413Z,57.43
2018-08-16T08:14:11.412Z,56.85
2018-08-16T08:15:11.489Z,56.43
2018-08-16T08:16:11.436Z,56.46
2018-08-16T08:17:11.464Z,56.75
2018-08-16T08:18:11.481Z,57.33
2018-08-16T08:19:11.575Z,57.33
2018-08-16T08:20:11.480Z,58.39
2018-08-16T08:21:11.500Z,57.81
2018-08-16T08:22:11.528Z,56.36
2018-08-16T08:23:11.532Z,56.26
2018-08-16T08:24:11.560Z,57.53
2018-08-16T08:25:11.591Z,56.94
2018-08-16T08:26:11.627Z,56.07
2018-08-16T08:27:11.588Z,56.94
2018-08-16T08:28:11.600Z,56.94
2018-08-16T08:29:11.659Z,57.04
2018-08-16T08:30:11.645Z,57.04
2018-08-16T08:31:11.697Z,56.36
2018-08-16T08:32:11.727Z,56.16
2018-08-16T08:33:11.688Z,57.04
2018-08-16T08:34:11.697Z,57.33
2018-08-16T08:35:11.726Z,56.36
2018-08-16T08:36:11.816Z,55.88
2018-08-16T08:37:11.732Z,56.56
2018-08-16T08:38:11.762Z,56.46
2018-08-16T08:39:11.780Z,56.75
2018-08-16T08:40:11.794Z,55.58
2018-08-16T08:41:11.845Z,55.58
2018-08-16T08:42:11.802Z,56.65
2018-08-16T08:43:11.866Z,56.16
2018-08-16T08:44:11.810Z,56.65
2018-08-16T08:45:11.864Z,55.88
2018-08-16T08:46:11.877Z,56.07
2018-08-16T08:47:11.858Z,55.49
2018-08-16T08:48:11.924Z,56.36
2018-08-16T08:49:11.935Z,56.56
2018-08-16T08:50:11.947Z,56.36
2018-08-16T08:51:11.915Z,56.56
2018-08-16T08:52:11.969Z,55.30
2018-08-16T08:53:11.943Z,56.94
2018-08-16T08:54:12.022Z,56.16
2018-08-16T08:55:11.999Z,55.00
2018-08-16T08:56:12.004Z,55.27
2018-08-16T08:57:12.013Z,55.49
2018-08-16T08:58:12.028Z,55.58
2018-08-16T08:59:12.123Z,55.88
2018-08-16T09:00:12.122Z,55.98
2018-08-16T09:01:12.067Z,56.16
2018-08-16T09:02:12.080Z,55.30
2018-08-16T09:03:12.106Z,54.71
2018-08-16T09:04:12.089Z,54.62
2018-08-16T09:05:12.266Z,54.62
2018-08-16T09:06:12.149Z,56.07
2018-08-16T09:07:12.170Z,54.62
2018-08-16T09:08:12.200Z,56.07
2018-08-16T09:09:12.194Z,56.07
2018-08-16T09:10:12.237Z,54.62
2018-08-16T09:11:12.198Z,54.33
2018-08-16T09:12:12.203Z,53.85
2018-08-16T09:13:12.211Z,54.71
2018-08-16T09:14:12.272Z,54.52
2018-08-16T09:15:12.357Z,53.65
2018-08-16T09:16:12.339Z,54.62
2018-08-16T09:17:12.292Z,54.62
2018-08-16T09:18:12.311Z,54.62
2018-08-16T09:19:12.359Z,55.49
2018-08-16T09:20:12.333Z,55.20
2018-08-16T09:21:12.632Z,56.65
2018-08-16T09:22:12.367Z,56.94
2018-08-16T09:23:12.376Z,55.49
2018-08-16T09:24:12.528Z,55.78
2018-08-16T09:25:12.393Z,53.26
2018-08-16T09:26:12.407Z,53.45
2018-08-16T09:27:12.480Z,53.17
2018-08-16T09:28:12.461Z,52.68
2018-08-16T09:29:12.470Z,53.65
2018-08-16T09:30:12.482Z,54.03
2018-08-16T09:31:12.519Z,54.06
2018-08-16T09:32:12.513Z,56.10
2018-08-16T09:33:12.539Z,54.62
2018-08-16T09:34:12.529Z,54.35
2018-08-16T09:35:12.587Z,53.58
2018-08-16T09:36:12.624Z,51.84
2018-08-16T09:37:12.615Z,51.74
2018-08-16T09:38:12.582Z,53.87
2018-08-16T09:39:12.615Z,51.74
2018-08-16T09:40:12.595Z,50.57
2018-08-16T09:41:12.671Z,50.29
2018-08-16T09:42:12.627Z,49.80
2018-08-16T09:43:12.661Z,49.61
2018-08-16T09:44:12.672Z,50.48
2018-08-16T09:45:12.734Z,50.57
2018-08-16T09:46:12.744Z,49.90
2018-08-16T09:47:12.702Z,50.09
2018-08-16T09:48:12.728Z,50.48
2018-08-16T09:49:12.724Z,50.96
2018-08-16T09:50:12.770Z,51.35
2018-08-16T09:51:12.837Z,50.29
2018-08-16T09:52:12.795Z,50.48
2018-08-16T09:53:12.811Z,50.57
2018-08-16T09:54:12.794Z,49.61
2018-08-16T09:55:12.822Z,50.09
2018-08-16T09:56:12.829Z,51.06
2018-08-16T09:57:12.829Z,50.67
2018-08-16T09:58:12.886Z,50.29
2018-08-16T09:59:12.874Z,50.79
2018-08-16T10:00:12.902Z,50.79
2018-08-16T10:01:12.907Z,50.48
2018-08-16T10:02:13.091Z,50.41
2018-08-16T10:03:12.970Z,49.73
2018-08-16T10:04:12.988Z,49.90
2018-08-16T10:05:12.992Z,50.09
2018-08-16T10:06:12.970Z,50.50
2018-08-16T10:07:12.991Z,50.21
2018-08-16T10:08:12.995Z,49.63
2018-08-16T10:09:13.000Z,49.44
2018-08-16T10:10:13.115Z,49.22
2018-08-16T10:11:13.076Z,48.85
2018-08-16T10:12:13.079Z,48.27
2018-08-16T10:13:13.088Z,49.05
2018-08-16T10:14:13.108Z,47.02
2018-08-16T10:15:13.144Z,47.89
2018-08-16T10:16:13.116Z,48.95
2018-08-16T10:17:13.119Z,49.05
2018-08-16T10:18:13.214Z,47.86
2018-08-16T10:19:13.148Z,48.95
2018-08-16T10:20:13.222Z,48.27
2018-08-16T10:21:13.191Z,49.92
2018-08-16T10:22:13.197Z,49.73
2018-08-16T10:23:13.247Z,48.85
2018-08-16T10:24:13.240Z,49.24
2018-08-16T10:25:13.277Z,49.73
2018-08-16T10:26:13.287Z,46.92
2018-08-16T10:27:13.346Z,46.02
2018-08-16T10:28:13.289Z,46.72
2018-08-16T10:29:13.293Z,45.92
2018-08-16T10:30:13.314Z,46.33
2018-08-16T10:31:13.310Z,47.09
2018-08-16T10:32:13.412Z,48.18
2018-08-16T10:33:13.376Z,49.44
2018-08-16T10:34:13.383Z,48.85
2018-08-16T10:35:13.383Z,47.40
2018-08-16T10:36:13.441Z,47.50
2018-08-16T10:37:13.557Z,45.75
2018-08-16T10:38:13.423Z,46.33
2018-08-16T10:39:13.449Z,46.72
2018-08-16T10:40:13.479Z,47.30
2018-08-16T10:41:13.452Z,48.18
2018-08-16T10:42:13.506Z,46.43
2018-08-16T10:43:13.512Z,47.20
2018-08-16T10:44:13.707Z,46.72
2018-08-16T10:45:13.515Z,47.50
2018-08-16T10:46:13.574Z,48.76
2018-08-16T10:47:13.566Z,48.27
2018-08-16T10:48:13.571Z,50.41
2018-08-16T10:49:13.595Z,48.57
2018-08-16T10:50:13.643Z,47.69
2018-08-16T10:51:13.665Z,46.53
2018-08-16T10:52:13.643Z,46.04
2018-08-16T10:53:13.634Z,47.11
2018-08-16T10:54:13.659Z,46.62
2018-08-16T10:55:13.702Z,48.20
2018-08-16T10:56:13.674Z,48.08
2018-08-16T10:57:13.754Z,47.20
2018-08-16T10:58:13.702Z,46.92
2018-08-16T10:59:13.751Z,47.20
2018-08-16T11:00:13.758Z,46.72
2018-08-16T11:01:13.817Z,46.55
2018-08-16T11:02:13.821Z,47.03
2018-08-16T11:03:13.832Z,46.53
2018-08-16T11:04:13.803Z,46.53
2018-08-16T11:05:13.813Z,47.81
2018-08-16T11:06:13.872Z,48.10
2018-08-16T11:07:13.844Z,46.84
2018-08-16T11:08:13.903Z,46.36
2018-08-16T11:09:13.913Z,46.65
2018-08-16T11:10:13.968Z,45.97
2018-08-16T11:11:13.926Z,46.36
2018-08-16T11:12:13.928Z,46.36
2018-08-16T11:13:13.941Z,47.81
2018-08-16T11:14:13.997Z,46.75
2018-08-16T11:15:13.954Z,45.65
2018-08-16T11:16:13.990Z,45.47
2018-08-16T11:17:14.027Z,45.95
2018-08-16T11:18:14.015Z,46.43
2018-08-16T11:19:14.082Z,46.16
2018-08-16T11:20:14.030Z,45.78
2018-08-16T11:21:14.057Z,45.48
2018-08-16T11:22:14.068Z,45.20
2018-08-16T11:23:14.072Z,45.87
2018-08-16T11:24:14.122Z,45.39
2018-08-16T11:25:14.096Z,45.20
2018-08-16T11:26:14.115Z,45.10
2018-08-16T11:27:14.138Z,44.61
2018-08-16T11:28:14.152Z,44.23
2018-08-16T11:29:14.195Z,44.42
2018-08-16T11:30:14.204Z,45.29
2018-08-16T11:31:14.232Z,43.64
2018-08-16T11:32:14.203Z,45.29
2018-08-16T11:33:14.234Z,45.10
2018-08-16T11:34:14.247Z,43.54
2018-08-16T11:35:14.328Z,45.29
2018-08-16T11:36:14.299Z,45.39
2018-08-16T11:37:14.322Z,45.48
2018-08-16T11:38:14.333Z,46.16
2018-08-16T11:39:14.308Z,45.87
2018-08-16T11:40:14.338Z,45.87
2018-08-16T11:41:14.341Z,45.68
2018-08-16T11:42:14.389Z,46.36
2018-08-16T11:43:14.480Z,45.68
2018-08-16T11:44:14.371Z,45.00
2018-08-16T11:45:14.378Z,45.00
2018-08-16T11:46:14.420Z,45.00
2018-08-16T11:47:14.438Z,43.45
2018-08-16T11:48:14.455Z,44.23
2018-08-16T11:49:14.484Z,44.23
2018-08-16T11:50:14.458Z,45.10
2018-08-16T11:51:14.507Z,45.39
2018-08-16T11:52:14.498Z,45.51
2018-08-16T11:53:14.504Z,45.70
2018-08-16T11:54:14.586Z,45.31
2018-08-16T11:55:14.594Z,47.25
2018-08-16T11:56:14.543Z,45.99
2018-08-16T11:57:14.563Z,46.36
2018-08-16T11:58:14.619Z,44.64
2018-08-16T11:59:14.609Z,45.97
2018-08-16T12:00:15.080Z,44.03
2018-08-16T12:01:14.667Z,45.70
2018-08-16T12:02:14.713Z,45.80
2018-08-16T12:03:14.704Z,45.12
2018-08-16T12:04:14.677Z,45.80
2018-08-16T12:05:14.703Z,45.41
2018-08-16T12:06:14.784Z,45.89
2018-08-16T12:07:14.792Z,46.77
2018-08-16T12:08:14.719Z,46.48
2018-08-16T12:09:14.745Z,45.80
2018-08-16T12:10:14.740Z,45.21
2018-08-16T12:11:14.796Z,44.44
2018-08-16T12:12:14.814Z,45.61
2018-08-16T12:13:14.873Z,44.64
2018-08-16T12:14:14.824Z,45.51
2018-08-16T12:15:14.908Z,45.31
2018-08-16T12:16:14.839Z,43.37
2018-08-16T12:17:14.910Z,43.66
2018-08-16T12:18:14.897Z,42.60
2018-08-16T12:19:14.892Z,42.69
2018-08-16T12:20:14.909Z,43.76
2018-08-16T12:21:14.918Z,44.64
2018-08-16T12:22:14.949Z,44.64
2018-08-16T12:23:14.994Z,44.64
2018-08-16T12:24:15.026Z,43.86
2018-08-16T12:25:14.958Z,44.24
2018-08-16T12:26:14.997Z,46.67
2018-08-16T12:27:15.016Z,45.31
2018-08-16T12:28:15.064Z,45.31
2018-08-16T12:29:15.088Z,45.21
2018-08-16T12:30:15.049Z,45.51
2018-08-16T12:31:15.057Z,44.24
2018-08-16T12:32:15.068Z,44.64
2018-08-16T12:33:15.093Z,45.80
2018-08-16T12:34:15.136Z,46.58
2018-08-16T12:35:15.172Z,45.12
2018-08-16T12:36:15.130Z,45.51
2018-08-16T12:37:15.152Z,45.31
2018-08-16T12:38:15.174Z,45.41
2018-08-16T12:39:15.204Z,44.83
2018-08-16T12:40:15.234Z,45.70
2018-08-16T12:41:15.263Z,44.15
2018-08-16T12:42:15.215Z,43.66
2018-08-16T12:43:15.224Z,45.89
2018-08-16T12:44:15.268Z,44.54
2018-08-16T12:45:15.339Z,45.53
2018-08-16T12:46:15.455Z,44.27
2018-08-16T12:47:15.369Z,45.14
2018-08-16T12:48:15.338Z,44.07
2018-08-16T12:49:15.348Z,43.57
2018-08-16T12:50:15.343Z,43.88
2018-08-16T12:51:15.390Z,43.86
2018-08-16T12:52:15.423Z,44.05